createdAt,value
2022-11-19T00:00:46.023Z,-1.80
2022-11-19T00:03:15.559Z,-1.80
2022-11-19T00:05:47.443Z,-1.90
2022-11-19T00:08:18.189Z,-1.80
2022-11-19T00:10:48.882Z,-1.80
2022-11-19T00:13:17.102Z,-1.80
2022-11-19T00:15:48.529Z,-1.80
2022-11-19T00:18:17.592Z,-1.70
2022-11-19T00:20:47.701Z,-1.80
2022-11-19T00:23:16.939Z,-1.80
2022-11-19T00:25:47.276Z,-1.80
2022-11-19T00:28:16.760Z,-1.70
2022-11-19T00:30:48.836Z,-1.70
2022-11-19T00:33:18.217Z,-1.60
2022-11-19T00:35:47.900Z,-1.60
2022-11-19T00:38:17.177Z,-1.60
2022-11-19T00:40:46.909Z,-1.60
2022-11-19T00:43:33.352Z,-1.70
2022-11-19T00:46:04.508Z,-1.70
2022-11-19T00:48:33.915Z,-1.70
2022-11-19T00:51:06.442Z,-1.80
2022-11-19T00:53:36.091Z,-1.70
2022-11-19T00:56:08.352Z,-1.70
2022-11-19T00:58:38.049Z,-1.70
2022-11-19T01:01:10.191Z,-1.70
2022-11-19T01:03:40.115Z,-1.70
2022-11-19T01:06:14.191Z,-1.60
2022-11-19T01:08:46.025Z,-1.70
2022-11-19T01:11:18.016Z,-1.70
2022-11-19T01:13:48.384Z,-1.70
2022-11-19T01:16:22.015Z,-1.70
2022-11-19T01:18:52.076Z,-1.60
2022-11-19T01:21:23.879Z,-1.70
2022-11-19T01:23:53.403Z,-1.70
2022-11-19T01:26:24.089Z,-1.70
2022-11-19T01:28:53.411Z,-1.70
2022-11-19T01:31:27.372Z,-1.70
2022-11-19T01:33:57.184Z,-1.80
2022-11-19T01:36:28.188Z,-1.80
2022-11-19T01:38:58.299Z,-1.80
2022-11-19T01:41:30.694Z,-1.80
2022-11-19T01:44:02.320Z,-1.80
2022-11-19T01:46:35.287Z,-1.80
2022-11-19T01:49:08.441Z,-1.80
2022-11-19T01:51:40.663Z,-1.90
2022-11-19T01:54:17.150Z,-1.90
2022-11-19T01:56:47.510Z,-1.80
2022-11-19T01:59:19.623Z,-1.80
2022-11-19T02:01:51.519Z,-1.90
2022-11-19T02:04:22.480Z,-1.90
2022-11-19T02:06:54.233Z,-1.90
2022-11-19T02:09:29.289Z,-1.90
2022-11-19T02:12:16.707Z,-2.00
2022-11-19T02:15:13.123Z,-2.00
2022-11-19T02:18:20.949Z,-2.00
2022-11-19T02:21:06.095Z,-1.90
2022-11-19T02:23:57.446Z,-1.90
2022-11-19T02:27:09.012Z,-1.90
2022-11-19T02:30:03.908Z,-2.00
2022-11-19T02:32:36.448Z,-2.00
2022-11-19T02:35:24.183Z,-2.00
2022-11-19T02:38:01.599Z,-2.10
2022-11-19T02:40:37.955Z,-2.00
2022-11-19T02:43:18.354Z,-2.00
2022-11-19T02:45:54.881Z,-2.00
2022-11-19T02:48:27.332Z,-2.00
2022-11-19T02:51:01.547Z,-1.90
2022-11-19T02:53:31.736Z,-2.00
2022-11-19T02:56:13.363Z,-2.00
2022-11-19T02:59:05.995Z,-2.00
2022-11-19T03:01:57.529Z,-2.00
2022-11-19T03:04:34.945Z,-2.10
2022-11-19T03:07:11.529Z,-2.10
2022-11-19T03:09:44.386Z,-2.10
2022-11-19T03:12:23.536Z,-2.10
2022-11-19T03:15:14.499Z,-2.10
2022-11-19T03:18:02.662Z,-2.10
2022-11-19T03:20:41.726Z,-2.10
2022-11-19T03:23:18.270Z,-2.10
2022-11-19T03:26:01.280Z,-2.20
2022-11-19T03:28:37.942Z,-2.10
2022-11-19T03:31:08.087Z,-2.20
2022-11-19T03:33:44.846Z,-2.20
2022-11-19T03:36:20.150Z,-2.20
2022-11-19T03:38:54.130Z,-2.20
2022-11-19T03:41:27.860Z,-2.50
2022-11-19T03:44:01.620Z,-2.20
2022-11-19T03:46:33.013Z,-2.20
2022-11-19T03:49:06.171Z,-2.20
2022-11-19T03:51:41.633Z,-2.20
2022-11-19T03:54:12.243Z,-2.20
2022-11-19T03:56:43.214Z,-2.50
2022-11-19T03:59:14.659Z,-2.20
2022-11-19T04:01:48.652Z,-2.20
2022-11-19T04:04:38.425Z,-2.20
2022-11-19T04:07:10.044Z,-2.20
2022-11-19T04:09:40.666Z,-2.20
2022-11-19T04:12:16.176Z,-2.20
2022-11-19T04:14:46.263Z,-2.20
2022-11-19T04:17:15.934Z,-2.20
2022-11-19T04:19:47.643Z,-2.20
2022-11-19T04:22:17.063Z,-2.20
2022-11-19T04:24:47.122Z,-2.10
2022-11-19T04:27:16.596Z,-2.20
2022-11-19T04:29:46.775Z,-2.20
2022-11-19T04:32:16.202Z,-2.20
2022-11-19T04:34:47.828Z,-2.20
2022-11-19T04:37:17.369Z,-2.30
2022-11-19T04:39:47.428Z,-2.20
2022-11-19T04:42:16.656Z,-2.20
2022-11-19T04:44:46.439Z,-2.20
2022-11-19T04:47:15.672Z,-2.20
2022-11-19T04:49:46.722Z,-2.20
2022-11-19T04:52:15.984Z,-2.20
2022-11-19T04:54:45.582Z,-2.20
2022-11-19T04:57:15.076Z,-2.20
2022-11-19T04:59:45.280Z,-2.30
2022-11-19T05:02:14.520Z,-2.30
2022-11-19T05:04:44.486Z,-2.30
2022-11-19T05:07:15.554Z,-2.20
2022-11-19T05:09:45.858Z,-2.20
2022-11-19T05:12:15.203Z,-2.20
2022-11-19T05:14:45.951Z,-2.20
2022-11-19T05:17:15.555Z,-2.20
2022-11-19T05:19:45.551Z,-2.30
2022-11-19T05:22:16.251Z,-2.30
2022-11-19T05:24:46.221Z,-2.30
2022-11-19T05:27:15.704Z,-2.40
2022-11-19T05:29:45.715Z,-2.40
2022-11-19T05:32:15.309Z,-2.40
2022-11-19T05:34:45.769Z,-2.40
2022-11-19T05:37:16.964Z,-2.40
2022-11-19T05:39:47.000Z,-2.40
2022-11-19T05:42:16.257Z,-2.40
2022-11-19T05:44:45.844Z,-2.40
2022-11-19T05:47:16.540Z,-2.40
2022-11-19T05:49:46.483Z,-2.40
2022-11-19T05:52:17.463Z,-2.40
2022-11-19T05:54:47.539Z,-2.40
2022-11-19T05:57:16.779Z,-2.40
2022-11-19T05:59:46.394Z,-2.40
2022-11-19T06:02:15.651Z,-2.40
2022-11-19T06:04:46.929Z,-2.40
2022-11-19T06:07:17.742Z,-2.40
2022-11-19T06:09:47.542Z,-2.40
2022-11-19T06:12:16.765Z,-2.40
2022-11-19T06:14:46.924Z,-2.30
2022-11-19T06:17:16.151Z,-2.30
2022-11-19T06:19:45.755Z,-2.30
2022-11-19T06:22:15.195Z,-2.30
2022-11-19T06:24:46.347Z,-2.40
2022-11-19T06:27:15.863Z,-2.40
2022-11-19T06:29:45.783Z,-2.30
2022-11-19T06:32:15.082Z,-2.30
2022-11-19T06:34:44.695Z,-2.30
2022-11-19T06:37:14.272Z,-2.30
2022-11-19T06:39:45.811Z,-2.20
2022-11-19T06:42:32.479Z,-2.20
2022-11-19T06:45:02.271Z,-2.20
2022-11-19T06:47:32.696Z,-2.20
2022-11-19T06:50:03.004Z,-2.20
2022-11-19T06:52:32.455Z,-2.20
2022-11-19T06:55:04.049Z,-2.20
2022-11-19T06:57:33.324Z,-2.20
2022-11-19T07:00:03.080Z,-2.20
2022-11-19T07:02:32.670Z,-2.20
2022-11-19T07:05:02.635Z,-2.20
2022-11-19T07:07:32.023Z,-2.10
2022-11-19T07:10:03.403Z,-2.10
2022-11-19T07:12:32.294Z,-2.10
2022-11-19T07:15:04.589Z,-2.10
2022-11-19T07:17:34.983Z,-2.00
2022-11-19T07:20:05.587Z,-2.10
2022-11-19T07:22:34.860Z,-2.10
2022-11-19T07:25:07.352Z,-2.10
2022-11-19T07:27:36.855Z,-2.00
2022-11-19T07:30:08.524Z,-2.10
2022-11-19T07:32:38.063Z,-2.10
2022-11-19T07:35:09.524Z,-2.10
2022-11-19T07:37:39.354Z,-2.00
2022-11-19T07:40:14.713Z,-2.00
2022-11-19T07:42:49.564Z,-2.00
2022-11-19T07:45:20.585Z,-2.10
2022-11-19T07:47:50.628Z,-2.00
2022-11-19T07:50:21.103Z,-2.00
2022-11-19T07:52:50.551Z,-1.90
2022-11-19T07:55:21.996Z,-2.00
2022-11-19T07:57:51.676Z,-2.00
2022-11-19T08:00:21.855Z,-2.00
2022-11-19T08:02:51.493Z,-2.00
2022-11-19T08:05:21.695Z,-2.00
2022-11-19T08:07:51.439Z,-1.90
2022-11-19T08:10:25.567Z,-1.90
2022-11-19T08:13:04.542Z,-1.70
2022-11-19T08:15:35.971Z,-1.70
2022-11-19T08:18:13.039Z,-1.80
2022-11-19T08:20:44.537Z,-1.80
2022-11-19T08:23:14.830Z,-1.80
2022-11-19T08:25:46.203Z,-1.80
2022-11-19T08:28:15.989Z,-1.80
2022-11-19T08:30:47.024Z,-1.80
2022-11-19T08:33:16.821Z,-1.80
2022-11-19T08:35:46.755Z,-1.70
2022-11-19T08:38:16.200Z,-1.70
2022-11-19T08:40:53.375Z,-1.60
2022-11-19T08:43:21.584Z,-1.60
2022-11-19T08:45:55.482Z,-1.50
2022-11-19T08:48:24.951Z,-1.40
2022-11-19T08:50:55.067Z,-1.50
2022-11-19T08:53:24.481Z,-1.60
2022-11-19T08:55:55.919Z,-1.50
2022-11-19T08:58:25.259Z,-1.60
2022-11-19T09:00:55.212Z,-1.60
2022-11-19T09:03:24.640Z,-1.60
2022-11-19T09:06:00.737Z,-1.70
2022-11-19T09:08:30.311Z,-1.60
2022-11-19T09:11:01.856Z,-1.50
2022-11-19T09:13:31.206Z,-1.50
2022-11-19T09:16:01.246Z,-1.50
2022-11-19T09:18:30.889Z,-1.50
2022-11-19T09:21:01.083Z,-1.60
2022-11-19T09:23:30.407Z,-1.50
2022-11-19T09:26:03.260Z,-1.50
2022-11-19T09:28:33.046Z,-1.50
2022-11-19T09:31:05.306Z,-1.50
2022-11-19T09:33:36.755Z,-1.40
2022-11-19T09:36:07.339Z,-1.40
2022-11-19T09:38:36.613Z,-1.40
2022-11-19T09:41:27.228Z,-1.30
2022-11-19T09:44:06.584Z,-1.40
2022-11-19T09:46:45.904Z,-1.20
2022-11-19T09:49:20.591Z,-1.10
2022-11-19T09:51:57.295Z,-1.10
2022-11-19T09:54:27.491Z,-1.20
2022-11-19T09:57:04.193Z,-1.20
2022-11-19T09:59:38.141Z,-1.10
2022-11-19T10:02:18.939Z,-1.20
2022-11-19T10:04:49.550Z,-1.10
2022-11-19T10:07:30.223Z,-1.00
2022-11-19T10:10:13.631Z,-1.10
2022-11-19T10:13:12.274Z,-1.10
2022-11-19T10:15:53.253Z,-1.20
2022-11-19T10:18:30.061Z,-1.20
2022-11-19T10:21:04.211Z,-1.10
2022-11-19T10:23:46.073Z,-0.90
2022-11-19T10:26:16.499Z,-1.00
2022-11-19T10:28:55.460Z,-1.10
2022-11-19T10:31:32.525Z,-1.10
2022-11-19T10:34:09.327Z,-1.10
2022-11-19T10:36:43.940Z,-1.00
2022-11-19T10:39:22.106Z,-1.00
2022-11-19T10:41:56.907Z,-1.10
2022-11-19T10:44:41.789Z,-1.10
2022-11-19T10:47:20.572Z,-1.10
2022-11-19T10:49:55.302Z,-1.20
2022-11-19T10:52:30.451Z,-1.20
2022-11-19T10:55:05.747Z,-1.20
2022-11-19T10:57:35.961Z,-1.20
2022-11-19T11:00:08.387Z,-1.30
2022-11-19T11:02:46.447Z,-1.40
2022-11-19T11:05:18.477Z,-1.40
2022-11-19T11:07:58.763Z,-1.40
2022-11-19T11:10:38.069Z,-1.40
2022-11-19T11:13:35.349Z,-1.40
2022-11-19T11:16:12.870Z,-1.50
2022-11-19T11:18:42.680Z,-1.60
2022-11-19T11:21:21.931Z,-1.50
2022-11-19T11:23:55.364Z,-1.60
2022-11-19T11:26:26.731Z,-1.50
2022-11-19T11:29:02.002Z,-1.40
2022-11-19T11:31:40.529Z,-1.40
2022-11-19T11:34:17.103Z,-1.30
2022-11-19T11:36:47.404Z,-1.40
2022-11-19T11:39:28.226Z,-1.30
2022-11-19T11:42:06.628Z,-1.20
2022-11-19T11:44:39.810Z,-1.20
2022-11-19T11:47:16.958Z,-1.30
2022-11-19T11:49:49.762Z,-1.30
2022-11-19T11:52:22.812Z,-1.40
2022-11-19T11:55:03.099Z,-1.40
2022-11-19T11:57:34.769Z,-1.30
2022-11-19T12:00:06.426Z,-1.40
2022-11-19T12:02:38.225Z,-1.50
2022-11-19T12:05:08.791Z,-1.50
2022-11-19T12:08:05.682Z,-1.50
2022-11-19T12:10:45.422Z,-1.50
2022-11-19T12:13:55.638Z,-1.40
2022-11-19T12:16:38.894Z,-1.50
2022-11-19T12:19:24.625Z,-1.60
2022-11-19T12:22:02.952Z,-1.60
2022-11-19T12:24:50.047Z,-1.60
2022-11-19T12:27:28.851Z,-1.60
2022-11-19T12:30:06.384Z,-1.60
2022-11-19T12:33:05.228Z,-1.60
2022-11-19T12:35:53.280Z,-1.60
2022-11-19T12:38:37.753Z,-1.50
2022-11-19T12:41:24.719Z,-1.60
2022-11-19T12:44:00.423Z,-1.50
2022-11-19T12:46:45.990Z,-1.40
2022-11-19T12:49:40.080Z,-1.50
2022-11-19T12:52:25.625Z,-1.50
2022-11-19T12:55:05.999Z,-1.50
2022-11-19T12:57:43.853Z,-1.50
2022-11-19T13:00:19.269Z,-1.50
2022-11-19T13:03:07.508Z,-1.50
2022-11-19T13:05:43.072Z,-1.60
2022-11-19T13:08:20.353Z,-1.60
2022-11-19T13:10:54.819Z,-1.50
2022-11-19T13:13:29.522Z,-1.50
2022-11-19T13:16:01.623Z,-1.60
2022-11-19T13:18:36.492Z,-1.60
2022-11-19T13:21:10.031Z,-1.70
2022-11-19T13:23:44.937Z,-1.70
2022-11-19T13:26:18.262Z,-1.70
2022-11-19T13:28:51.598Z,-1.80
2022-11-19T13:31:33.602Z,-1.80
2022-11-19T13:34:13.367Z,-1.80
2022-11-19T13:36:47.067Z,-1.80
2022-11-19T13:39:27.967Z,-1.90
2022-11-19T13:42:15.737Z,-1.90
2022-11-19T13:44:45.638Z,-1.90
2022-11-19T13:47:21.993Z,-1.90
2022-11-19T13:49:55.736Z,-1.90
2022-11-19T13:52:31.676Z,-1.90
2022-11-19T13:55:03.758Z,-1.90
2022-11-19T13:57:36.672Z,-1.80
2022-11-19T14:00:08.674Z,-1.90
2022-11-19T14:03:21.869Z,-1.90
2022-11-19T14:06:16.522Z,-1.90
2022-11-19T14:09:08.238Z,-1.90
2022-11-19T14:12:18.393Z,-1.90
2022-11-19T14:15:27.813Z,-1.90
2022-11-19T14:18:22.428Z,-1.90
2022-11-19T14:21:12.253Z,-1.90
2022-11-19T14:24:05.727Z,-2.00
2022-11-19T14:27:17.485Z,-2.00
2022-11-19T14:30:01.693Z,-2.00
2022-11-19T14:32:37.321Z,-2.00
2022-11-19T14:35:33.031Z,-2.00
2022-11-19T14:38:30.129Z,-2.10
2022-11-19T14:41:23.031Z,-2.10
2022-11-19T14:44:11.948Z,-2.20
2022-11-19T14:46:47.367Z,-2.30
2022-11-19T14:49:38.259Z,-2.20
2022-11-19T14:52:22.169Z,-2.20
2022-11-19T14:54:56.780Z,-2.20
2022-11-19T14:57:30.413Z,-2.20
2022-11-19T15:00:04.198Z,-2.30
2022-11-19T15:02:39.804Z,-2.30
2022-11-19T15:05:19.765Z,-2.20
2022-11-19T15:07:55.881Z,-2.30
2022-11-19T15:10:48.848Z,-2.20
2022-11-19T15:13:27.997Z,-2.20
2022-11-19T15:16:04.435Z,-2.30
2022-11-19T15:18:52.954Z,-2.20
2022-11-19T15:21:55.906Z,-2.30
2022-11-19T15:24:37.488Z,-2.30
2022-11-19T15:27:18.961Z,-2.30
2022-11-19T15:30:09.059Z,-2.30
2022-11-19T15:33:03.980Z,-2.30
2022-11-19T15:35:52.925Z,-2.30
2022-11-19T15:38:32.194Z,-2.30
2022-11-19T15:41:05.103Z,-2.30
2022-11-19T15:43:39.333Z,-2.30
2022-11-19T15:46:13.747Z,-2.40
2022-11-19T15:48:58.567Z,-2.40
2022-11-19T15:51:34.158Z,-2.40
2022-11-19T15:54:08.580Z,-2.40
2022-11-19T15:56:40.811Z,-2.40
2022-11-19T15:59:13.771Z,-2.40
2022-11-19T16:01:44.767Z,-2.40
2022-11-19T16:04:18.881Z,-2.40
2022-11-19T16:06:52.861Z,-2.50
2022-11-19T16:09:26.211Z,-2.40
2022-11-19T16:12:16.004Z,-2.40
2022-11-19T16:15:09.245Z,-2.40
2022-11-19T16:17:45.349Z,-2.50
2022-11-19T16:20:22.277Z,-2.40
2022-11-19T16:22:57.260Z,-2.40
2022-11-19T16:25:36.690Z,-2.40
2022-11-19T16:28:15.967Z,-2.50
2022-11-19T16:30:47.670Z,-2.40
2022-11-19T16:33:22.047Z,-2.40
2022-11-19T16:35:53.905Z,-2.50
2022-11-19T16:38:29.688Z,-2.50
2022-11-19T16:41:16.623Z,-2.50
2022-11-19T16:43:49.057Z,-2.40
2022-11-19T16:46:25.962Z,-2.50
2022-11-19T16:48:58.939Z,-2.50
2022-11-19T16:51:41.847Z,-2.50
2022-11-19T16:54:13.211Z,-2.50
2022-11-19T16:56:45.817Z,-2.60
2022-11-19T16:59:21.817Z,-2.50
2022-11-19T17:01:56.430Z,-2.50
2022-11-19T17:04:29.942Z,-2.60
2022-11-19T17:07:01.723Z,-2.60
2022-11-19T17:09:44.952Z,-2.50
2022-11-19T17:12:29.008Z,-2.60
2022-11-19T17:15:00.621Z,-2.60
2022-11-19T17:17:42.267Z,-2.60
2022-11-19T17:20:49.999Z,-2.60
2022-11-19T17:23:22.414Z,-2.60
2022-11-19T17:25:54.876Z,-2.60
2022-11-19T17:28:30.190Z,-2.60
2022-11-19T17:31:08.628Z,-2.60
2022-11-19T17:33:38.466Z,-2.60
2022-11-19T17:36:14.934Z,-2.60
2022-11-19T17:38:46.022Z,-2.60
2022-11-19T17:41:38.633Z,-2.60
2022-11-19T17:44:28.675Z,-2.60
2022-11-19T17:46:59.138Z,-2.60
2022-11-19T17:49:28.415Z,-2.60
2022-11-19T17:51:58.050Z,-2.60
2022-11-19T17:54:29.707Z,-2.60
2022-11-19T17:56:59.397Z,-2.60
2022-11-19T17:59:28.770Z,-2.60
2022-11-19T18:01:58.936Z,-2.60
2022-11-19T18:04:28.305Z,-2.50
2022-11-19T18:06:58.201Z,-2.50
2022-11-19T18:09:34.616Z,-2.50
2022-11-19T18:12:05.327Z,-2.50
2022-11-19T18:14:34.976Z,-2.50
2022-11-19T18:17:04.988Z,-2.50
2022-11-19T18:19:34.211Z,-2.50
2022-11-19T18:22:04.571Z,-2.60
2022-11-19T18:24:38.836Z,-2.50
2022-11-19T18:27:08.975Z,-2.40
2022-11-19T18:29:38.465Z,-2.40
2022-11-19T18:32:08.197Z,-2.30
2022-11-19T18:34:38.014Z,-2.30
2022-11-19T18:37:08.135Z,-2.40
2022-11-19T18:39:39.137Z,-2.30
2022-11-19T18:42:10.952Z,-2.30
2022-11-19T18:44:39.538Z,-2.30
2022-11-19T18:47:11.480Z,-2.30
2022-11-19T18:49:41.245Z,-2.40
2022-11-19T18:52:15.239Z,-2.50
2022-11-19T18:54:46.632Z,-2.50
2022-11-19T18:57:16.691Z,-2.40
2022-11-19T18:59:46.100Z,-2.50
2022-11-19T19:02:16.146Z,-2.50
2022-11-19T19:04:50.706Z,-2.50
2022-11-19T19:07:20.942Z,-2.60
2022-11-19T19:09:51.821Z,-2.50
2022-11-19T19:12:22.562Z,-2.50
2022-11-19T19:14:53.193Z,-2.60
2022-11-19T19:17:23.342Z,-2.60
2022-11-19T19:19:52.591Z,-2.60
2022-11-19T19:22:23.099Z,-2.50
2022-11-19T19:24:58.119Z,-2.50
2022-11-19T19:27:28.915Z,-2.60
2022-11-19T19:29:58.433Z,-2.70
2022-11-19T19:32:28.412Z,-2.60
2022-11-19T19:34:57.665Z,-2.60
2022-11-19T19:37:28.592Z,-2.70
2022-11-19T19:39:59.379Z,-2.60
2022-11-19T19:42:30.613Z,-2.60
2022-11-19T19:45:00.752Z,-2.70
2022-11-19T19:47:30.723Z,-2.60
2022-11-19T19:50:00.326Z,-2.70
2022-11-19T19:52:30.232Z,-2.60
2022-11-19T19:55:01.367Z,-2.70
2022-11-19T19:57:31.696Z,-2.60
2022-11-19T20:00:01.423Z,-2.60
2022-11-19T20:02:31.400Z,-2.60
2022-11-19T20:05:01.027Z,-2.60
2022-11-19T20:07:31.128Z,-2.50
2022-11-19T20:10:04.542Z,-2.60
2022-11-19T20:12:48.308Z,-2.60
2022-11-19T20:15:17.981Z,-2.60
2022-11-19T20:17:48.019Z,-2.60
2022-11-19T20:20:17.918Z,-2.60
2022-11-19T20:22:47.630Z,-2.60
2022-11-19T20:25:19.123Z,-2.60
2022-11-19T20:27:49.209Z,-2.60
2022-11-19T20:30:18.771Z,-2.50
2022-11-19T20:32:49.014Z,-2.50
2022-11-19T20:35:18.523Z,-2.50
2022-11-19T20:37:49.015Z,-2.50
2022-11-19T20:40:19.857Z,-2.60
2022-11-19T20:43:06.868Z,-2.50
2022-11-19T20:45:38.271Z,-2.50
2022-11-19T20:48:08.539Z,-2.60
2022-11-19T20:50:38.143Z,-2.50
2022-11-19T20:53:07.950Z,-2.60
2022-11-19T20:55:53.304Z,-2.50
2022-11-19T20:58:28.312Z,-2.50
2022-11-19T21:01:04.196Z,-2.50
2022-11-19T21:03:35.198Z,-2.50
2022-11-19T21:06:07.669Z,-2.50
2022-11-19T21:08:38.335Z,-2.50
2022-11-19T21:11:11.376Z,-2.50
2022-11-19T21:13:41.640Z,-2.50
2022-11-19T21:16:14.227Z,-2.50
2022-11-19T21:18:44.860Z,-2.50
2022-11-19T21:21:15.443Z,-2.50
2022-11-19T21:23:45.799Z,-2.50
2022-11-19T21:26:18.520Z,-2.50
2022-11-19T21:28:49.854Z,-2.50
2022-11-19T21:31:21.955Z,-2.50
2022-11-19T21:33:51.842Z,-2.40
2022-11-19T21:36:21.169Z,-2.40
2022-11-19T21:38:51.143Z,-2.50
2022-11-19T21:41:22.166Z,-2.40
2022-11-19T21:43:52.539Z,-2.40
2022-11-19T21:46:21.936Z,-2.40
2022-11-19T21:48:51.967Z,-2.30
2022-11-19T21:51:24.635Z,-2.40
2022-11-19T21:53:56.540Z,-2.40
2022-11-19T21:56:29.112Z,-2.40
2022-11-19T21:59:00.927Z,-2.30
2022-11-19T22:01:30.400Z,-2.20
2022-11-19T22:04:00.111Z,-2.20
2022-11-19T22:06:29.683Z,-2.20
2022-11-19T22:08:59.475Z,-2.20
2022-11-19T22:11:30.659Z,-2.20
2022-11-19T22:14:03.269Z,-2.20
2022-11-19T22:16:35.538Z,-2.20
2022-11-19T22:19:05.878Z,-2.30
2022-11-19T22:21:35.749Z,-2.20
2022-11-19T22:24:06.257Z,-2.20
2022-11-19T22:26:37.468Z,-2.20
2022-11-19T22:29:07.466Z,-2.20
2022-11-19T22:31:36.906Z,-2.10
2022-11-19T22:34:07.082Z,-2.10
2022-11-19T22:36:36.595Z,-2.10
2022-11-19T22:39:06.940Z,-2.10
2022-11-19T22:41:37.863Z,-2.20
2022-11-19T22:44:07.744Z,-2.10
2022-11-19T22:46:37.051Z,-2.20
2022-11-19T22:49:06.962Z,-2.10
2022-11-19T22:51:36.340Z,-2.20
2022-11-19T22:54:08.882Z,-2.20
2022-11-19T22:56:39.878Z,-2.20
2022-11-19T22:59:10.194Z,-2.20
2022-11-19T23:01:39.500Z,-2.20
2022-11-19T23:04:10.268Z,-2.10
2022-11-19T23:06:40.474Z,-2.10
2022-11-19T23:09:10.461Z,-2.10
2022-11-19T23:11:58.540Z,-2.10
2022-11-19T23:14:30.420Z,-2.00
2022-11-19T23:16:59.960Z,-2.00
2022-11-19T23:19:30.329Z,-2.10
2022-11-19T23:21:59.849Z,-2.10
2022-11-19T23:24:29.562Z,-2.10
2022-11-19T23:27:00.532Z,-2.20
2022-11-19T23:29:30.947Z,-2.10
2022-11-19T23:32:00.198Z,-2.10
2022-11-19T23:34:29.827Z,-2.10
2022-11-19T23:36:59.135Z,-2.10
2022-11-19T23:39:29.314Z,-2.10
2022-11-19T23:42:00.151Z,-2.10
2022-11-19T23:44:29.997Z,-2.10
2022-11-19T23:46:59.659Z,-2.10
2022-11-19T23:49:29.655Z,-2.00
2022-11-19T23:51:58.946Z,-2.10
2022-11-19T23:54:28.634Z,-2.10
2022-11-19T23:56:58.005Z,-2.20
2022-11-19T23:59:30.155Z,-2.20
